createdAt,value
2018-09-24T00:01:18.431Z,0.70
2018-09-24T00:03:45.590Z,0.90
2018-09-24T00:06:12.772Z,0.90
2018-09-24T00:08:39.964Z,0.90
2018-09-24T00:11:07.145Z,0.90
2018-09-24T00:13:34.348Z,0.97
2018-09-24T00:16:01.564Z,0.90
2018-09-24T00:18:28.741Z,0.90
2018-09-24T00:20:55.908Z,1.00
2018-09-24T00:23:23.896Z,1.00
2018-09-24T00:25:51.137Z,0.93
2018-09-24T00:28:18.308Z,1.10
2018-09-24T00:30:45.489Z,0.97
2018-09-24T00:33:12.664Z,0.90
2018-09-24T00:35:39.780Z,0.90
2018-09-24T00:38:06.936Z,0.80
2018-09-24T00:40:34.073Z,0.80
2018-09-24T00:43:01.246Z,0.90
2018-09-24T00:45:28.477Z,0.80
2018-09-24T00:47:55.605Z,0.90
2018-09-24T00:50:22.800Z,0.90
2018-09-24T00:52:50.020Z,0.90
2018-09-24T00:55:17.231Z,1.00
2018-09-24T00:57:44.390Z,0.80
2018-09-24T01:00:11.579Z,1.00
2018-09-24T01:02:38.684Z,1.00
2018-09-24T01:05:05.997Z,1.23
2018-09-24T01:07:33.139Z,1.30
2018-09-24T01:10:00.261Z,0.97
2018-09-24T01:12:27.437Z,1.10
2018-09-24T01:14:54.571Z,0.80
2018-09-24T01:17:21.720Z,1.10
2018-09-24T01:19:48.887Z,1.00
2018-09-24T01:22:16.028Z,0.90
2018-09-24T01:24:43.148Z,1.20
2018-09-24T01:27:11.355Z,1.30
2018-09-24T01:29:38.513Z,1.17
2018-09-24T01:32:05.682Z,1.33
2018-09-24T01:34:32.837Z,1.33
2018-09-24T01:36:59.983Z,1.50
2018-09-24T01:39:27.103Z,1.50
2018-09-24T01:41:54.283Z,1.17
2018-09-24T01:44:21.430Z,1.30
2018-09-24T01:46:48.564Z,1.70
2018-09-24T01:49:15.687Z,1.53
2018-09-24T01:51:42.891Z,1.50
2018-09-24T01:54:10.073Z,1.60
2018-09-24T01:56:37.269Z,2.30
2018-09-24T01:59:04.469Z,2.63
2018-09-24T02:01:32.132Z,1.83
2018-09-24T02:03:59.287Z,1.77
2018-09-24T02:06:26.429Z,1.43
2018-09-24T02:08:53.585Z,1.30
2018-09-24T02:11:20.713Z,1.30
2018-09-24T02:13:50.240Z,1.50
2018-09-24T02:16:17.876Z,1.70
2018-09-24T02:18:45.537Z,1.70
2018-09-24T02:21:12.751Z,1.40
2018-09-24T02:23:39.901Z,1.80
2018-09-24T02:26:07.126Z,1.30
2018-09-24T02:28:34.282Z,1.60
2018-09-24T02:31:01.420Z,1.40
2018-09-24T02:33:28.613Z,2.00
2018-09-24T02:35:55.787Z,1.53
2018-09-24T02:38:22.940Z,1.33
2018-09-24T02:40:50.120Z,1.40
2018-09-24T02:43:22.534Z,1.33
2018-09-24T02:45:49.807Z,1.80
2018-09-24T02:48:16.942Z,1.47
2018-09-24T02:50:44.122Z,2.17
2018-09-24T02:53:11.308Z,1.60
2018-09-24T02:55:38.528Z,1.20
2018-09-24T02:58:05.741Z,1.47
2018-09-24T03:00:32.936Z,1.70
2018-09-24T03:03:00.521Z,1.67
2018-09-24T03:05:27.705Z,2.03
2018-09-24T03:07:55.082Z,1.20
2018-09-24T03:10:22.240Z,1.60
2018-09-24T03:12:51.399Z,1.77
2018-09-24T03:15:18.825Z,1.67
2018-09-24T03:17:46.000Z,1.60
2018-09-24T03:20:13.343Z,1.50
2018-09-24T03:22:40.529Z,1.27
2018-09-24T03:25:07.830Z,2.30
2018-09-24T03:27:34.951Z,1.60
2018-09-24T03:30:02.282Z,1.50
2018-09-24T03:32:29.474Z,1.77
2018-09-24T03:34:56.643Z,1.67
2018-09-24T03:37:23.828Z,1.90
2018-09-24T03:39:51.065Z,2.00
2018-09-24T03:42:18.280Z,1.93
2018-09-24T03:44:45.489Z,1.47
2018-09-24T03:47:12.699Z,1.67
2018-09-24T03:49:39.853Z,2.00
2018-09-24T03:52:07.074Z,1.43
2018-09-24T03:54:34.250Z,1.63
2018-09-24T03:57:01.412Z,1.60
2018-09-24T03:59:28.589Z,1.60
2018-09-24T04:01:55.759Z,1.70
2018-09-24T04:04:28.500Z,1.57
2018-09-24T04:07:01.507Z,1.67
2018-09-24T04:09:34.462Z,3.00
2018-09-24T04:12:07.381Z,2.00
2018-09-24T04:14:40.103Z,1.87
2018-09-24T04:17:13.193Z,1.87
2018-09-24T04:19:46.093Z,1.93
2018-09-24T04:22:19.089Z,2.37
2018-09-24T04:24:52.008Z,1.90
2018-09-24T04:27:24.884Z,1.47
2018-09-24T04:29:57.636Z,2.00
2018-09-24T04:32:30.621Z,2.30
2018-09-24T04:35:03.561Z,1.70
2018-09-24T04:37:36.644Z,2.03
2018-09-24T04:40:10.127Z,2.00
2018-09-24T04:42:43.208Z,2.00
2018-09-24T04:45:16.163Z,2.03
2018-09-24T04:47:48.932Z,1.83
2018-09-24T04:50:21.686Z,2.00
2018-09-24T04:52:54.540Z,2.20
2018-09-24T04:55:27.424Z,3.37
2018-09-24T04:58:00.420Z,2.23
2018-09-24T05:00:33.384Z,2.17
2018-09-24T05:03:06.404Z,2.90
2018-09-24T05:05:39.145Z,2.17
2018-09-24T05:08:12.065Z,2.80
2018-09-24T05:10:44.924Z,2.00
2018-09-24T05:13:17.934Z,2.40
2018-09-24T05:15:50.907Z,3.13
2018-09-24T05:18:23.556Z,2.13
2018-09-24T05:20:56.255Z,2.33
2018-09-24T05:23:29.211Z,2.17
2018-09-24T05:26:01.848Z,2.50
2018-09-24T05:28:34.848Z,2.23
2018-09-24T05:31:07.763Z,2.93
2018-09-24T05:33:40.704Z,2.30
2018-09-24T05:36:13.611Z,2.17
2018-09-24T05:38:46.596Z,2.00
2018-09-24T05:41:19.379Z,2.00
2018-09-24T05:43:52.277Z,2.80
2018-09-24T05:46:25.342Z,2.73
2018-09-24T05:48:58.324Z,1.80
2018-09-24T05:51:31.340Z,2.50
2018-09-24T05:54:04.013Z,3.00
2018-09-24T05:56:36.963Z,2.10
2018-09-24T05:59:09.846Z,2.10
2018-09-24T06:01:42.609Z,2.20
2018-09-24T06:04:15.567Z,2.10
2018-09-24T06:06:48.425Z,2.10
2018-09-24T06:09:21.380Z,2.17
2018-09-24T06:11:54.158Z,1.80
2018-09-24T06:14:27.005Z,2.30
2018-09-24T06:16:59.902Z,2.30
2018-09-24T06:19:32.601Z,2.87
2018-09-24T06:22:05.604Z,3.20
2018-09-24T06:24:38.533Z,2.10
2018-09-24T06:27:11.275Z,3.20
2018-09-24T06:29:44.316Z,2.10
2018-09-24T06:32:17.287Z,2.03
2018-09-24T06:34:49.987Z,2.40
2018-09-24T06:37:22.875Z,2.70
2018-09-24T06:39:55.756Z,2.30
2018-09-24T06:42:28.459Z,2.43
2018-09-24T06:45:01.420Z,2.20
2018-09-24T06:47:34.138Z,2.97
2018-09-24T06:50:07.147Z,2.13
2018-09-24T06:52:40.106Z,2.20
2018-09-24T06:55:13.120Z,1.90
2018-09-24T06:57:45.965Z,2.40
2018-09-24T07:00:18.958Z,2.20
2018-09-24T07:02:51.681Z,2.20
2018-09-24T07:05:24.755Z,2.67
2018-09-24T07:07:57.808Z,2.10
2018-09-24T07:10:30.697Z,2.00
2018-09-24T07:13:03.700Z,1.80
2018-09-24T07:15:36.672Z,2.00
2018-09-24T07:18:09.664Z,2.30
2018-09-24T07:20:42.611Z,2.17
2018-09-24T07:23:15.540Z,1.93
2018-09-24T07:25:48.226Z,1.73
2018-09-24T07:28:21.256Z,2.50
2018-09-24T07:30:53.985Z,3.20
2018-09-24T07:33:26.984Z,2.20
2018-09-24T07:35:59.979Z,1.63
2018-09-24T07:38:32.960Z,2.67
2018-09-24T07:41:05.869Z,1.77
2018-09-24T07:43:38.855Z,1.70
2018-09-24T07:46:11.847Z,3.00
2018-09-24T07:48:44.775Z,1.27
2018-09-24T07:51:17.780Z,2.00
2018-09-24T07:53:50.512Z,2.30
2018-09-24T07:56:23.363Z,2.10
2018-09-24T07:58:56.305Z,1.70
2018-09-24T08:01:29.281Z,1.67
2018-09-24T08:04:02.213Z,1.80
2018-09-24T08:06:35.224Z,2.10
2018-09-24T08:09:08.213Z,1.70
2018-09-24T08:11:41.112Z,1.63
2018-09-24T08:14:13.866Z,1.83
2018-09-24T08:16:46.777Z,1.63
2018-09-24T08:19:19.731Z,1.47
2018-09-24T08:21:52.656Z,1.80
2018-09-24T08:24:25.328Z,1.20
2018-09-24T08:26:58.257Z,1.90
2018-09-24T08:29:31.148Z,1.83
2018-09-24T08:32:04.044Z,1.53
2018-09-24T08:34:36.767Z,2.00
2018-09-24T08:37:09.752Z,1.90
2018-09-24T08:39:42.754Z,1.70
2018-09-24T08:42:15.688Z,1.80
2018-09-24T08:44:48.590Z,2.40
2018-09-24T08:47:21.569Z,1.67
2018-09-24T08:49:54.276Z,1.70
2018-09-24T08:52:27.048Z,2.00
2018-09-24T08:55:00.001Z,1.43
2018-09-24T08:57:32.981Z,1.63
2018-09-24T09:00:05.933Z,1.70
2018-09-24T09:02:38.890Z,1.63
2018-09-24T09:05:11.788Z,2.10
2018-09-24T09:07:44.545Z,1.87
2018-09-24T09:10:17.476Z,2.07
2018-09-24T09:12:50.353Z,1.57
2018-09-24T09:15:23.307Z,1.67
2018-09-24T09:17:56.033Z,1.60
2018-09-24T09:20:28.987Z,1.80
2018-09-24T09:23:01.991Z,1.93
2018-09-24T09:25:34.864Z,2.40
2018-09-24T09:28:08.847Z,2.10
2018-09-24T09:30:41.583Z,1.93
2018-09-24T09:33:14.583Z,1.93
2018-09-24T09:35:47.384Z,1.93
2018-09-24T09:38:20.273Z,1.60
2018-09-24T09:40:53.266Z,2.43
2018-09-24T09:43:26.226Z,1.63
2018-09-24T09:45:58.929Z,1.60
2018-09-24T09:48:31.800Z,2.20
2018-09-24T09:51:04.441Z,1.67
2018-09-24T09:53:37.270Z,1.80
2018-09-24T09:56:10.144Z,1.80
2018-09-24T09:58:43.058Z,1.90
2018-09-24T10:01:15.952Z,1.87
2018-09-24T10:03:48.858Z,1.73
2018-09-24T10:06:21.628Z,1.70
2018-09-24T10:08:54.539Z,2.13
2018-09-24T10:11:27.453Z,1.70
2018-09-24T10:14:00.392Z,1.60
2018-09-24T10:16:33.103Z,1.80
2018-09-24T10:19:05.900Z,3.30
2018-09-24T10:21:38.661Z,1.83
2018-09-24T10:24:11.555Z,1.47
2018-09-24T10:26:44.455Z,1.70
2018-09-24T10:29:17.376Z,1.73
2018-09-24T10:31:50.142Z,1.30
2018-09-24T10:34:23.011Z,1.37
2018-09-24T10:36:55.772Z,2.17
2018-09-24T10:39:28.545Z,1.80
2018-09-24T10:42:01.305Z,1.87
2018-09-24T10:44:34.133Z,1.73
2018-09-24T10:47:06.820Z,1.67
2018-09-24T10:49:39.623Z,2.00
2018-09-24T10:52:12.620Z,2.10
2018-09-24T10:54:45.580Z,1.80
2018-09-24T10:57:18.546Z,1.90
2018-09-24T10:59:51.335Z,1.80
2018-09-24T11:02:24.321Z,1.60
2018-09-24T11:04:57.263Z,2.10
2018-09-24T11:07:30.123Z,1.77
2018-09-24T11:10:03.031Z,2.03
2018-09-24T11:12:35.722Z,1.87
2018-09-24T11:15:08.762Z,1.90
2018-09-24T11:17:41.861Z,1.63
2018-09-24T11:20:14.673Z,1.33
2018-09-24T11:22:47.391Z,1.47
2018-09-24T11:25:20.148Z,1.20
2018-09-24T11:27:53.062Z,1.77
2018-09-24T11:30:25.961Z,1.50
2018-09-24T11:32:58.638Z,1.57
2018-09-24T11:35:31.503Z,1.40
2018-09-24T11:38:04.452Z,1.37
2018-09-24T11:40:37.354Z,2.00
2018-09-24T11:43:10.357Z,1.80
2018-09-24T11:45:43.220Z,1.33
2018-09-24T11:48:16.166Z,1.50
2018-09-24T11:50:49.126Z,1.60
2018-09-24T11:53:22.020Z,1.30
2018-09-24T11:55:54.911Z,1.67
2018-09-24T11:58:27.702Z,1.20
2018-09-24T12:01:00.580Z,1.20
2018-09-24T12:03:33.356Z,1.50
2018-09-24T12:06:06.269Z,3.13
2018-09-24T12:08:39.312Z,1.20
2018-09-24T12:11:12.171Z,1.30
2018-09-24T12:13:44.933Z,1.10
2018-09-24T12:16:17.872Z,1.60
2018-09-24T12:18:50.586Z,1.37
2018-09-24T12:21:23.516Z,1.50
2018-09-24T12:23:56.289Z,1.43
2018-09-24T12:26:29.165Z,1.20
2018-09-24T12:29:02.092Z,1.00
2018-09-24T12:31:34.904Z,1.43
2018-09-24T12:34:07.888Z,1.50
2018-09-24T12:36:40.612Z,1.40
2018-09-24T12:39:13.383Z,1.30
2018-09-24T12:41:46.383Z,1.57
2018-09-24T12:44:19.323Z,1.53
2018-09-24T12:46:52.288Z,1.40
2018-09-24T12:49:24.955Z,1.30
2018-09-24T12:51:57.881Z,1.30
2018-09-24T12:54:30.770Z,1.70
2018-09-24T12:57:03.760Z,1.33
2018-09-24T12:59:36.824Z,2.10
2018-09-24T13:02:09.525Z,1.60
2018-09-24T13:04:42.507Z,1.30
2018-09-24T13:07:15.502Z,1.23
2018-09-24T13:09:48.464Z,1.30
2018-09-24T13:12:21.464Z,2.00
2018-09-24T13:14:54.377Z,1.60
2018-09-24T13:17:27.267Z,2.03
2018-09-24T13:20:00.153Z,1.77
2018-09-24T13:22:33.105Z,1.63
2018-09-24T13:25:06.132Z,1.33
2018-09-24T13:27:39.040Z,1.97
2018-09-24T13:30:11.749Z,1.40
2018-09-24T13:32:44.605Z,1.50
2018-09-24T13:35:17.301Z,1.60
2018-09-24T13:37:50.026Z,1.43
2018-09-24T13:40:22.972Z,1.47
2018-09-24T13:42:55.941Z,1.70
2018-09-24T13:45:28.788Z,1.40
2018-09-24T13:48:01.688Z,1.50
2018-09-24T13:50:34.611Z,1.30
2018-09-24T13:53:07.529Z,1.47
2018-09-24T13:55:40.283Z,1.50
2018-09-24T13:58:13.237Z,1.53
2018-09-24T14:00:45.948Z,1.20
2018-09-24T14:03:18.725Z,2.33
2018-09-24T14:05:51.727Z,1.13
2018-09-24T14:08:24.668Z,1.30
2018-09-24T14:10:57.669Z,1.40
2018-09-24T14:13:30.368Z,1.80
2018-09-24T14:16:03.130Z,1.33
2018-09-24T14:18:36.073Z,1.00
2018-09-24T14:21:09.000Z,1.30
2018-09-24T14:30:48.227Z,2.10
2018-09-24T14:33:21.226Z,1.70
2018-09-24T14:35:54.001Z,1.50
2018-09-24T14:45:35.152Z,1.30
2018-09-24T14:48:07.984Z,1.23
2018-09-24T14:50:40.917Z,1.70
2018-09-24T14:53:13.845Z,1.67
2018-09-24T14:55:46.866Z,1.03
2018-09-24T14:58:19.934Z,1.30
2018-09-24T15:00:52.698Z,2.03
2018-09-24T15:03:27.533Z,2.20
2018-09-24T15:06:01.365Z,1.70
2018-09-24T15:08:35.137Z,3.10
2018-09-24T15:11:08.048Z,3.20
2018-09-24T15:13:41.103Z,1.53
2018-09-24T15:16:13.861Z,2.13
2018-09-24T15:18:46.874Z,1.80
2018-09-24T15:21:19.781Z,1.40
2018-09-24T15:23:52.726Z,1.30
2018-09-24T15:26:25.753Z,1.50
2018-09-24T15:28:58.702Z,1.30
2018-09-24T15:31:31.618Z,3.23
2018-09-24T15:34:04.644Z,1.30
2018-09-24T15:36:37.590Z,1.60
2018-09-24T15:39:10.797Z,1.60
2018-09-24T15:41:43.750Z,1.60
2018-09-24T15:44:16.664Z,1.60
2018-09-24T15:46:49.446Z,1.13
2018-09-24T15:49:22.361Z,1.00
2018-09-24T15:51:55.336Z,1.37
2018-09-24T15:54:28.334Z,1.20
2018-09-24T15:57:01.257Z,1.57
2018-09-24T15:59:34.282Z,1.33
2018-09-24T16:02:07.300Z,4.27
2018-09-24T16:04:40.308Z,1.97
2018-09-24T16:07:13.142Z,1.70
2018-09-24T16:09:46.122Z,1.27
2018-09-24T16:12:19.168Z,1.60
2018-09-24T16:14:52.108Z,1.30
2018-09-24T16:17:25.060Z,1.20
2018-09-24T16:19:57.938Z,1.70
2018-09-24T16:22:30.752Z,1.80
2018-09-24T16:25:03.755Z,1.73
2018-09-24T16:27:36.534Z,2.20
2018-09-24T16:30:09.525Z,2.10
2018-09-24T16:32:44.359Z,2.10
2018-09-24T16:35:17.696Z,1.73
2018-09-24T16:37:50.672Z,3.47
2018-09-24T16:40:23.469Z,1.90
2018-09-24T16:42:56.577Z,2.90
2018-09-24T16:45:29.576Z,2.50
2018-09-24T16:48:02.612Z,2.50
2018-09-24T16:50:35.563Z,2.53
2018-09-24T16:53:08.347Z,2.10
2018-09-24T16:55:41.346Z,2.07
2018-09-24T16:58:14.317Z,2.27
2018-09-24T17:00:47.190Z,2.30
2018-09-24T17:03:20.290Z,2.43
2018-09-24T17:05:53.283Z,2.47
2018-09-24T17:08:26.292Z,2.80
2018-09-24T17:10:58.996Z,2.90
2018-09-24T17:13:31.986Z,2.37
2018-09-24T17:16:04.961Z,4.00
2018-09-24T17:18:37.967Z,6.23
2018-09-24T17:21:11.038Z,6.80
2018-09-24T17:23:44.146Z,6.73
2018-09-24T17:26:17.136Z,2.50
2018-09-24T17:28:50.004Z,2.13
2018-09-24T17:31:23.005Z,1.80
2018-09-24T17:33:56.014Z,1.20
2018-09-24T17:36:29.102Z,1.40
2018-09-24T17:39:01.918Z,1.27
2018-09-24T17:41:34.859Z,1.90
2018-09-24T17:44:07.914Z,2.87
2018-09-24T17:46:40.874Z,1.90
2018-09-24T17:49:13.832Z,2.80
2018-09-24T17:51:46.880Z,2.80
2018-09-24T17:54:19.923Z,2.67
2018-09-24T17:56:52.876Z,3.00
2018-09-24T17:59:25.659Z,3.67
2018-09-24T18:01:58.687Z,3.53
2018-09-24T18:04:31.770Z,3.00
2018-09-24T18:07:04.746Z,3.93
2018-09-24T18:09:37.760Z,2.80
2018-09-24T18:12:10.665Z,3.00
2018-09-24T18:14:43.651Z,2.50
2018-09-24T18:17:16.626Z,2.67
2018-09-24T18:19:49.645Z,25.03
2018-09-24T18:22:22.685Z,23.40
2018-09-24T18:24:55.691Z,9.60
2018-09-24T18:27:28.671Z,5.90
2018-09-24T18:30:01.556Z,4.00
2018-09-24T18:32:41.294Z,3.53
2018-09-24T18:35:13.977Z,3.20
2018-09-24T18:37:46.968Z,2.40
2018-09-24T18:40:20.001Z,2.40
2018-09-24T18:42:52.905Z,2.03
2018-09-24T18:45:25.879Z,2.10
2018-09-24T18:47:58.826Z,2.10
2018-09-24T18:50:31.832Z,2.13
2018-09-24T18:53:04.766Z,2.00
2018-09-24T18:55:37.467Z,2.33
2018-09-24T18:58:11.021Z,2.07
2018-09-24T19:00:43.938Z,3.27
2018-09-24T19:03:16.927Z,2.77
2018-09-24T19:05:49.813Z,2.17
2018-09-24T19:08:22.900Z,1.83
2018-09-24T19:10:55.817Z,3.30
2018-09-24T19:13:28.750Z,2.00
2018-09-24T19:16:01.601Z,2.10
2018-09-24T19:18:34.663Z,2.30
2018-09-24T19:21:07.501Z,2.23
2018-09-24T19:23:40.508Z,2.07
2018-09-24T19:26:13.432Z,1.40
2018-09-24T19:28:46.371Z,1.43
2018-09-24T19:31:19.163Z,1.80
2018-09-24T19:33:52.093Z,1.30
2018-09-24T19:36:24.811Z,1.60
2018-09-24T19:38:57.831Z,1.63
2018-09-24T19:41:30.843Z,1.23
2018-09-24T19:44:03.773Z,1.77
2018-09-24T19:46:36.725Z,1.20
2018-09-24T19:49:09.714Z,1.37
2018-09-24T19:51:42.640Z,1.50
2018-09-24T19:54:15.658Z,1.27
2018-09-24T19:56:48.669Z,2.20
2018-09-24T19:59:21.641Z,1.80
2018-09-24T20:01:54.704Z,1.90
2018-09-24T20:04:27.517Z,1.60
2018-09-24T20:07:00.456Z,1.33
2018-09-24T20:09:33.232Z,1.60
2018-09-24T20:12:06.300Z,1.60
2018-09-24T20:14:39.287Z,1.67
2018-09-24T20:17:12.444Z,1.00
2018-09-24T20:19:45.392Z,1.17
2018-09-24T20:22:18.303Z,1.27
2018-09-24T20:24:51.307Z,1.20
2018-09-24T20:27:24.346Z,1.40
2018-09-24T20:29:57.265Z,1.43
2018-09-24T20:32:30.060Z,1.43
2018-09-24T20:35:02.751Z,1.53
2018-09-24T20:37:35.745Z,1.07
2018-09-24T20:40:09.644Z,1.60
2018-09-24T20:42:42.673Z,1.40
2018-09-24T20:45:15.411Z,1.50
2018-09-24T20:47:48.185Z,1.60
2018-09-24T20:50:21.135Z,1.70
2018-09-24T20:52:54.083Z,1.40
2018-09-24T20:55:26.920Z,1.90
2018-09-24T20:57:59.635Z,1.50
2018-09-24T21:00:32.592Z,1.23
2018-09-24T21:03:06.009Z,1.27
2018-09-24T21:05:38.819Z,1.07
2018-09-24T21:08:11.808Z,1.17
2018-09-24T21:10:44.551Z,2.10
2018-09-24T21:13:17.527Z,1.20
2018-09-24T21:15:50.520Z,2.73
2018-09-24T21:18:23.597Z,1.10
2018-09-24T21:20:56.276Z,1.47
2018-09-24T21:23:29.228Z,1.70
2018-09-24T21:26:01.965Z,1.60
2018-09-24T21:28:34.662Z,1.67
2018-09-24T21:31:07.455Z,1.50
2018-09-24T21:33:40.448Z,1.43
2018-09-24T21:36:13.425Z,1.80
2018-09-24T21:38:46.096Z,1.70
2018-09-24T21:41:18.987Z,2.50
2018-09-24T21:43:51.724Z,2.40
2018-09-24T21:46:24.859Z,2.37
2018-09-24T21:48:57.412Z,2.87
2018-09-24T21:51:30.230Z,3.77
2018-09-24T21:54:03.056Z,2.80
2018-09-24T21:56:35.688Z,3.00
2018-09-24T21:59:08.726Z,3.53
2018-09-24T22:01:41.672Z,3.17
2018-09-24T22:04:14.722Z,3.20
2018-09-24T22:06:47.728Z,3.53
2018-09-24T22:09:20.500Z,3.03
2018-09-24T22:11:53.284Z,2.90
2018-09-24T22:14:26.154Z,3.23
2018-09-24T22:16:58.971Z,3.70
2018-09-24T22:19:31.732Z,3.67
2018-09-24T22:22:04.580Z,3.70
2018-09-24T22:24:37.361Z,4.30
2018-09-24T22:27:10.385Z,3.90
2018-09-24T22:29:43.112Z,2.73
2018-09-24T22:32:16.143Z,2.13
2018-09-24T22:41:54.677Z,2.23
2018-09-24T22:44:27.533Z,2.20
2018-09-24T22:47:00.435Z,2.00
2018-09-24T22:49:33.325Z,1.83
2018-09-24T22:52:06.260Z,2.50
2018-09-24T22:54:39.184Z,2.63
2018-09-24T22:57:12.488Z,2.97
2018-09-24T22:59:45.436Z,2.60
2018-09-24T23:02:18.339Z,3.63
2018-09-24T23:04:51.324Z,3.60
2018-09-24T23:07:24.263Z,3.10
2018-09-24T23:09:56.957Z,3.07
2018-09-24T23:12:29.881Z,2.90
2018-09-24T23:15:03.005Z,2.53
2018-09-24T23:17:36.063Z,2.67
2018-09-24T23:20:09.371Z,2.80
2018-09-24T23:22:42.373Z,2.17
2018-09-24T23:25:15.082Z,2.70
2018-09-24T23:27:48.030Z,2.40
2018-09-24T23:30:20.825Z,2.27
2018-09-24T23:32:53.808Z,2.57
2018-09-24T23:35:26.860Z,2.00
2018-09-24T23:37:59.876Z,2.27
2018-09-24T23:40:32.852Z,2.40
2018-09-24T23:43:05.763Z,2.10
2018-09-24T23:45:38.591Z,2.10
2018-09-24T23:48:11.589Z,2.17
2018-09-24T23:50:44.245Z,2.70
2018-09-24T23:53:16.929Z,2.60
2018-09-24T23:55:49.692Z,1.90
2018-09-24T23:58:22.400Z,2.60
